createdAt,value
2019-01-03T00:01:59.374Z,97092.06
2019-01-03T00:05:27.109Z,97099.05
2019-01-03T00:08:36.099Z,97099.05
2019-01-03T00:11:44.635Z,97107.98
2019-01-03T00:14:53.537Z,97110.60
2019-01-03T00:18:02.112Z,97122.54
2019-01-03T00:21:10.557Z,97122.54
2019-01-03T00:24:19.404Z,97118.03
2019-01-03T00:27:28.158Z,97116.12
2019-01-03T00:30:36.743Z,97119.34
2019-01-03T00:33:45.200Z,97120.85
2019-01-03T00:36:53.909Z,97135.48
2019-01-03T00:40:02.842Z,97133.08
2019-01-03T00:43:05.477Z,97129.97
2019-01-03T00:46:15.128Z,97137.81
2019-01-03T00:49:23.880Z,97138.07
2019-01-03T00:52:32.492Z,97144.90
2019-01-03T00:55:41.249Z,97151.63
2019-01-03T00:58:49.688Z,97161.34
2019-01-03T01:01:58.268Z,97157.77
2019-01-03T01:05:07.105Z,97156.69
2019-01-03T01:08:15.585Z,97170.34
2019-01-03T01:11:24.351Z,97166.50
2019-01-03T01:14:33.405Z,97169.27
2019-01-03T01:17:55.147Z,97190.38
2019-01-03T01:21:23.037Z,97187.82
2019-01-03T01:24:31.115Z,97187.82
2019-01-03T01:27:39.596Z,97189.69
2019-01-03T01:30:48.645Z,97189.60
2019-01-03T01:33:57.600Z,97194.64
2019-01-03T01:37:06.754Z,97202.06
2019-01-03T01:40:15.503Z,97201.47
2019-01-03T01:43:23.961Z,97198.48
2019-01-03T01:46:33.472Z,97203.95
2019-01-03T01:49:41.965Z,97204.12
2019-01-03T01:52:50.990Z,97205.66
2019-01-03T01:55:59.848Z,97214.60
2019-01-03T01:59:08.616Z,97212.05
2019-01-03T02:02:17.803Z,97213.39
2019-01-03T02:05:26.721Z,97218.87
2019-01-03T02:08:35.920Z,97216.25
2019-01-03T02:11:44.719Z,97217.91
2019-01-03T02:14:53.814Z,97214.30
2019-01-03T02:18:03.598Z,97224.42
2019-01-03T02:21:12.113Z,97229.60
2019-01-03T02:24:20.547Z,97230.62
2019-01-03T02:27:29.473Z,97234.45
2019-01-03T02:30:38.160Z,97229.29
2019-01-03T02:33:46.862Z,97222.63
2019-01-03T02:36:55.286Z,97223.70
2019-01-03T02:40:03.113Z,97213.84
2019-01-03T02:43:12.100Z,97224.70
2019-01-03T02:46:21.031Z,97226.81
2019-01-03T02:49:29.511Z,97232.11
2019-01-03T02:52:38.209Z,97227.33
2019-01-03T02:55:46.713Z,97221.19
2019-01-03T02:58:55.423Z,97227.70
2019-01-03T03:02:04.110Z,97225.19
2019-01-03T03:05:13.369Z,97221.61
2019-01-03T03:08:22.071Z,97230.05
2019-01-03T03:11:30.832Z,97228.70
2019-01-03T03:14:40.081Z,97226.22
2019-01-03T03:17:46.975Z,97225.91
2019-01-03T03:20:55.488Z,97225.91
2019-01-03T03:27:31.626Z,97224.70
2019-01-03T03:30:40.308Z,97230.81
2019-01-03T03:33:49.003Z,97228.47
2019-01-03T03:36:57.915Z,97231.16
2019-01-03T03:40:07.427Z,97231.39
2019-01-03T03:43:16.925Z,97228.02
2019-01-03T03:46:26.295Z,97225.46
2019-01-03T03:49:35.578Z,97228.09
2019-01-03T03:52:44.451Z,97230.19
2019-01-03T03:55:52.954Z,97223.30
2019-01-03T03:59:01.885Z,97228.40
2019-01-03T04:02:10.397Z,97228.84
2019-01-03T04:05:18.911Z,97225.84
2019-01-03T04:08:27.864Z,97227.08
2019-01-03T04:11:36.807Z,97226.70
2019-01-03T04:14:45.575Z,97221.09
2019-01-03T04:17:54.517Z,97219.19
2019-01-03T04:21:03.219Z,97213.98
2019-01-03T04:24:11.783Z,97206.56
2019-01-03T04:27:11.619Z,97214.39
2019-01-03T04:30:20.337Z,97201.53
2019-01-03T04:33:29.760Z,97195.87
2019-01-03T04:36:28.838Z,97191.66
2019-01-03T04:39:37.664Z,97191.15
2019-01-03T04:42:46.112Z,97190.83
2019-01-03T04:45:54.630Z,97184.89
2019-01-03T04:49:03.079Z,97192.23
2019-01-03T04:52:12.066Z,97186.18
2019-01-03T04:55:21.459Z,97188.47
2019-01-03T04:58:29.939Z,97190.44
2019-01-03T05:02:16.735Z,97195.35
2019-01-03T05:05:28.512Z,97198.28
2019-01-03T05:08:36.956Z,97204.07
2019-01-03T05:11:45.463Z,97214.61
2019-01-03T05:14:54.728Z,97214.86
2019-01-03T05:18:03.019Z,97221.79
2019-01-03T05:21:12.437Z,97218.55
2019-01-03T05:24:22.245Z,97218.22
2019-01-03T05:27:30.701Z,97224.27
2019-01-03T05:30:39.534Z,97228.61
2019-01-03T05:33:48.254Z,97233.72
2019-01-03T05:36:57.189Z,97236.74
2019-01-03T05:40:06.457Z,97241.84
2019-01-03T05:43:13.346Z,97249.00
2019-01-03T05:46:22.181Z,97251.27
2019-01-03T05:49:31.745Z,97249.81
2019-01-03T05:52:40.691Z,97256.13
2019-01-03T05:55:49.402Z,97261.93
2019-01-03T05:58:58.129Z,97270.07
2019-01-03T06:02:07.682Z,97267.02
2019-01-03T06:05:16.378Z,97263.71
2019-01-03T06:08:25.762Z,97267.91
2019-01-03T06:11:34.529Z,97281.35
2019-01-03T06:14:43.029Z,97283.05
2019-01-03T06:17:51.617Z,97274.73
2019-01-03T06:21:00.395Z,97270.21
2019-01-03T06:24:09.112Z,97266.27
2019-01-03T06:27:17.836Z,97271.42
2019-01-03T06:30:26.513Z,97274.41
2019-01-03T06:33:35.006Z,97277.88
2019-01-03T06:36:44.399Z,97281.44
2019-01-03T06:39:47.539Z,97277.89
2019-01-03T06:42:50.166Z,97282.95
2019-01-03T06:45:58.628Z,97279.13
2019-01-03T06:49:08.795Z,97283.14
2019-01-03T06:52:17.284Z,97293.69
2019-01-03T06:55:26.334Z,97297.47
2019-01-03T06:58:35.042Z,97305.08
2019-01-03T07:01:43.722Z,97305.97
2019-01-03T07:04:52.165Z,97318.02
2019-01-03T07:08:00.865Z,97318.02
2019-01-03T07:11:10.576Z,97324.22
2019-01-03T07:14:20.198Z,97319.45
2019-01-03T07:17:28.959Z,97322.86
2019-01-03T07:20:38.185Z,97327.77
2019-01-03T07:23:46.921Z,97338.02
2019-01-03T07:26:55.595Z,97327.44
2019-01-03T07:30:04.615Z,97328.81
2019-01-03T07:33:14.489Z,97330.53
2019-01-03T07:36:23.379Z,97321.38
2019-01-03T07:39:32.231Z,97315.77
2019-01-03T07:42:41.154Z,97320.00
2019-01-03T07:45:50.180Z,97326.13
2019-01-03T07:48:58.777Z,97329.67
2019-01-03T07:52:07.835Z,97334.73
2019-01-03T07:55:08.687Z,97336.55
2019-01-03T07:58:18.466Z,97332.16
2019-01-03T08:01:28.165Z,97350.09
2019-01-03T08:04:36.943Z,97359.84
2019-01-03T08:07:46.418Z,97362.64
2019-01-03T08:10:56.840Z,97360.98
2019-01-03T08:14:06.425Z,97357.60
2019-01-03T08:17:15.745Z,97361.88
2019-01-03T08:20:24.916Z,97359.80
2019-01-03T08:23:33.848Z,97351.40
2019-01-03T08:26:42.803Z,97355.70
2019-01-03T08:29:51.422Z,97346.99
2019-01-03T08:33:00.684Z,97353.62
2019-01-03T08:36:09.592Z,97352.47
2019-01-03T08:39:18.045Z,97360.52
2019-01-03T08:42:26.997Z,97359.61
2019-01-03T08:45:35.926Z,97363.87
2019-01-03T08:48:44.747Z,97362.79
2019-01-03T08:51:53.856Z,97361.27
2019-01-03T08:55:02.556Z,97361.42
2019-01-03T08:58:11.850Z,97363.77
2019-01-03T09:01:21.664Z,97362.36
2019-01-03T09:04:30.849Z,97362.87
2019-01-03T09:07:39.893Z,97360.31
2019-01-03T09:10:48.351Z,97353.73
2019-01-03T09:13:57.077Z,97355.33
2019-01-03T09:17:05.602Z,97357.33
2019-01-03T09:20:14.345Z,97358.02
2019-01-03T09:23:23.117Z,97367.59
2019-01-03T09:26:32.893Z,97367.70
2019-01-03T09:29:36.865Z,97369.09
2019-01-03T09:32:45.682Z,97369.74
2019-01-03T09:35:54.326Z,97366.98
2019-01-03T09:39:02.775Z,97370.26
2019-01-03T09:42:12.045Z,97368.73
2019-01-03T09:45:01.748Z,97361.47
2019-01-03T09:47:51.913Z,97360.44
2019-01-03T09:50:41.780Z,97350.78
2019-01-03T09:53:31.431Z,97361.57
2019-01-03T09:56:53.504Z,97355.29
2019-01-03T09:59:31.998Z,97355.29
2019-01-03T10:02:23.085Z,97353.02
2019-01-03T10:05:12.954Z,97352.84
2019-01-03T10:08:02.700Z,97350.67
2019-01-03T10:10:52.299Z,97344.05
2019-01-03T10:14:01.051Z,97331.16
2019-01-03T10:16:50.732Z,97331.16
2019-01-03T10:19:40.767Z,97348.25
2019-01-03T10:22:30.478Z,97345.26
2019-01-03T10:25:19.996Z,97349.77
2019-01-03T10:28:09.752Z,97341.12
2019-01-03T10:30:59.688Z,97340.70
2019-01-03T10:33:52.794Z,97342.95
2019-01-03T10:36:43.002Z,97340.56
2019-01-03T10:39:32.951Z,97342.29
2019-01-03T10:42:22.650Z,97331.84
2019-01-03T10:45:31.995Z,97319.06
2019-01-03T10:48:21.677Z,97316.33
2019-01-03T10:51:11.690Z,97316.33
2019-01-03T10:54:01.932Z,97309.00
2019-01-03T10:57:10.843Z,97302.23
2019-01-03T11:00:00.740Z,97302.23
2019-01-03T11:02:50.923Z,97300.73
2019-01-03T11:05:40.946Z,97305.27
2019-01-03T11:08:30.660Z,97305.27
2019-01-03T11:11:20.596Z,97290.10
2019-01-03T11:17:07.062Z,97287.28
2019-01-03T11:19:56.805Z,97286.52
2019-01-03T11:22:49.411Z,97270.72
2019-01-03T11:25:38.869Z,97261.80
2019-01-03T11:28:30.644Z,97268.28
2019-01-03T11:31:20.162Z,97260.77
2019-01-03T11:34:09.653Z,97250.62
2019-01-03T11:37:00.595Z,97250.62
2019-01-03T11:39:50.277Z,97252.70
2019-01-03T11:42:39.848Z,97248.87
2019-01-03T11:45:48.993Z,97247.83
2019-01-03T11:48:38.697Z,97247.83
2019-01-03T11:51:29.180Z,97244.06
2019-01-03T11:54:19.699Z,97221.89
2019-01-03T11:57:12.476Z,97225.41
2019-01-03T12:03:19.465Z,97213.84
2019-01-03T12:06:09.469Z,97199.61
2019-01-03T12:08:59.200Z,97197.59
2019-01-03T12:11:49.737Z,97194.97
2019-01-03T12:14:39.435Z,97190.75
2019-01-03T12:17:29.424Z,97190.68
2019-01-03T12:20:19.402Z,97190.68
2019-01-03T12:23:08.865Z,97187.30
2019-01-03T12:26:17.762Z,97183.47
2019-01-03T12:29:09.059Z,97183.47
2019-01-03T12:31:59.095Z,97183.98
2019-01-03T12:35:00.227Z,97191.57
2019-01-03T12:37:50.278Z,97191.57
2019-01-03T12:40:40.189Z,97188.05
2019-01-03T12:43:29.947Z,97182.25
2019-01-03T12:46:21.034Z,97189.47
2019-01-03T12:49:11.666Z,97183.28
2019-01-03T12:52:01.815Z,97181.05
2019-01-03T12:54:51.841Z,97191.38
2019-01-03T12:58:02.690Z,97196.91
2019-01-03T13:00:52.936Z,97201.66
2019-01-03T13:03:43.658Z,97200.02
2019-01-03T13:06:34.994Z,97200.02
2019-01-03T13:09:43.992Z,97191.49
2019-01-03T13:12:34.018Z,97191.49
2019-01-03T13:15:23.460Z,97190.81
2019-01-03T13:18:32.314Z,97175.53
2019-01-03T13:21:22.232Z,97175.53
2019-01-03T13:24:12.120Z,97168.45
2019-01-03T13:27:02.173Z,97169.33
2019-01-03T13:30:12.549Z,97169.33
2019-01-03T13:36:31.381Z,97164.01
2019-01-03T13:42:51.369Z,97168.31
2019-01-03T13:45:41.047Z,97168.31
2019-01-03T13:48:31.072Z,97178.12
2019-01-03T13:51:21.014Z,97179.05
2019-01-03T13:54:10.849Z,97179.05
2019-01-03T13:57:01.317Z,97174.84
2019-01-03T13:59:50.853Z,97185.34
2019-01-03T14:02:40.959Z,97177.53
2019-01-03T14:05:32.993Z,97179.34
2019-01-03T14:08:42.198Z,97190.02
2019-01-03T14:14:40.202Z,97191.35
2019-01-03T14:17:49.340Z,97200.47
2019-01-03T14:20:39.039Z,97200.47
2019-01-03T14:23:28.984Z,97198.72
2019-01-03T14:26:19.093Z,97194.98
2019-01-03T14:29:10.115Z,97194.74
2019-01-03T14:32:21.811Z,97194.74
2019-01-03T14:35:11.623Z,97194.22
2019-01-03T14:38:01.563Z,97193.26
2019-01-03T14:40:51.560Z,97187.37
2019-01-03T14:43:41.302Z,97184.17
2019-01-03T14:46:30.997Z,97184.17
2019-01-03T14:49:21.905Z,97186.05
2019-01-03T14:52:52.266Z,97186.05
2019-01-03T14:55:42.426Z,97191.39
2019-01-03T14:58:31.873Z,97194.95
2019-01-03T15:01:22.652Z,97185.86
2019-01-03T15:04:12.817Z,97191.56
2019-01-03T15:07:02.838Z,97180.69
2019-01-03T15:09:53.308Z,97188.72
2019-01-03T15:12:43.005Z,97190.89
2019-01-03T15:15:33.101Z,97179.15
2019-01-03T15:18:23.175Z,97176.59
2019-01-03T15:21:13.934Z,97168.37
2019-01-03T15:24:03.925Z,97164.23
2019-01-03T15:27:16.096Z,97170.55
2019-01-03T15:30:07.197Z,97172.41
2019-01-03T15:33:00.362Z,97175.26
2019-01-03T15:35:51.243Z,97166.58
2019-01-03T15:38:41.327Z,97168.59
2019-01-03T15:41:31.290Z,97168.59
2019-01-03T15:44:21.532Z,97163.11
2019-01-03T15:47:11.016Z,97160.63
2019-01-03T15:50:01.003Z,97154.47
2019-01-03T15:52:50.901Z,97152.00
2019-01-03T15:55:40.342Z,97148.98
2019-01-03T15:58:30.660Z,97142.84
2019-01-03T16:01:20.803Z,97144.71
2019-01-03T16:04:10.238Z,97141.56
2019-01-03T16:07:00.232Z,97137.59
2019-01-03T16:10:09.346Z,97147.80
2019-01-03T16:12:59.761Z,97147.80
2019-01-03T16:15:49.978Z,97152.00
2019-01-03T16:18:40.259Z,97142.88
2019-01-03T16:21:29.974Z,97153.39
2019-01-03T16:24:21.324Z,97148.33
2019-01-03T16:27:10.930Z,97150.95
2019-01-03T16:30:00.494Z,97153.20
2019-01-03T16:32:50.220Z,97149.75
2019-01-03T16:35:39.942Z,97144.80
2019-01-03T16:38:30.109Z,97153.05
2019-01-03T16:41:18.158Z,97151.78
2019-01-03T16:44:07.933Z,97155.68
2019-01-03T16:46:58.206Z,97157.18
2019-01-03T16:49:47.999Z,97161.83
2019-01-03T16:52:37.784Z,97162.13
2019-01-03T16:55:27.722Z,97165.21
2019-01-03T16:58:17.690Z,97165.14
2019-01-03T17:01:07.411Z,97161.16
2019-01-03T17:03:57.153Z,97159.66
2019-01-03T17:06:47.130Z,97163.86
2019-01-03T17:09:36.846Z,97153.27
2019-01-03T17:12:26.884Z,97149.59
2019-01-03T17:15:16.910Z,97144.42
2019-01-03T17:18:07.570Z,97144.27
2019-01-03T17:20:58.135Z,97138.78
2019-01-03T17:23:48.325Z,97138.26
2019-01-03T17:26:38.810Z,97138.52
2019-01-03T17:29:29.096Z,97138.73
2019-01-03T17:32:19.072Z,97143.39
2019-01-03T17:35:10.509Z,97138.38
2019-01-03T17:37:59.854Z,97143.48
2019-01-03T17:40:49.627Z,97135.22
2019-01-03T17:43:39.450Z,97136.04
2019-01-03T17:46:29.891Z,97141.81
2019-01-03T17:49:19.364Z,97155.84
2019-01-03T17:52:28.279Z,97147.36
2019-01-03T17:55:17.979Z,97146.80
2019-01-03T17:58:07.735Z,97146.80
2019-01-03T18:00:57.761Z,97149.98
2019-01-03T18:03:47.506Z,97142.49
2019-01-03T18:06:37.234Z,97154.50
2019-01-03T18:09:26.773Z,97141.20
2019-01-03T18:12:16.311Z,97145.14
2019-01-03T18:15:06.895Z,97143.61
2019-01-03T18:17:56.600Z,97147.95
2019-01-03T18:20:46.644Z,97142.21
2019-01-03T18:23:36.375Z,97150.17
2019-01-03T18:26:27.007Z,97140.16
2019-01-03T18:29:16.898Z,97154.19
2019-01-03T18:32:06.501Z,97157.57
2019-01-03T18:34:56.807Z,97157.20
2019-01-03T18:37:58.453Z,97156.90
2019-01-03T18:40:48.491Z,97159.22
2019-01-03T18:43:38.539Z,97156.31
2019-01-03T18:46:28.330Z,97164.08
2019-01-03T18:49:18.369Z,97164.08
2019-01-03T18:52:09.504Z,97165.87
2019-01-03T18:54:58.981Z,97159.13
2019-01-03T18:57:49.253Z,97165.17
2019-01-03T19:00:39.196Z,97155.49
2019-01-03T19:03:28.930Z,97160.63
2019-01-03T19:06:18.946Z,97160.63
2019-01-03T19:09:09.174Z,97164.41
2019-01-03T19:11:59.649Z,97169.41
2019-01-03T19:14:49.799Z,97169.44
2019-01-03T19:17:39.542Z,97162.73
2019-01-03T19:20:29.792Z,97155.61
2019-01-03T19:23:19.553Z,97146.97
2019-01-03T19:26:11.084Z,97158.83
2019-01-03T19:29:00.614Z,97156.73
2019-01-03T19:31:50.328Z,97161.60
2019-01-03T19:34:40.458Z,97168.11
2019-01-03T19:37:30.696Z,97168.11
2019-01-03T19:40:21.565Z,97172.01
2019-01-03T19:43:11.145Z,97179.14
2019-01-03T19:46:00.874Z,97183.35
2019-01-03T19:49:09.907Z,97188.08
2019-01-03T19:51:59.893Z,97188.08
2019-01-03T19:54:49.391Z,97173.36
2019-01-03T19:57:39.682Z,97170.66
2019-01-03T20:00:48.626Z,97167.35
2019-01-03T20:03:57.559Z,97178.77
2019-01-03T20:06:47.369Z,97178.77
2019-01-03T20:09:37.462Z,97176.21
2019-01-03T20:12:27.678Z,97175.48
2019-01-03T20:15:17.449Z,97173.62
2019-01-03T20:18:26.372Z,97172.96
2019-01-03T20:21:16.146Z,97172.96
2019-01-03T20:24:05.995Z,97175.37
2019-01-03T20:26:57.799Z,97171.62
2019-01-03T20:29:47.762Z,97171.62
2019-01-03T20:32:38.004Z,97172.33
2019-01-03T20:35:27.749Z,97175.26
2019-01-03T20:38:17.571Z,97172.04
2019-01-03T20:41:07.144Z,97179.84
2019-01-03T20:43:56.893Z,97169.63
2019-01-03T20:46:46.683Z,97182.84
2019-01-03T20:49:37.084Z,97165.36
2019-01-03T20:52:28.883Z,97162.73
2019-01-03T20:55:18.689Z,97167.38
2019-01-03T20:58:08.443Z,97188.20
2019-01-03T21:00:58.243Z,97186.08
2019-01-03T21:03:48.192Z,97192.91
2019-01-03T21:06:38.481Z,97192.36
2019-01-03T21:09:28.194Z,97192.36
2019-01-03T21:12:18.239Z,97186.73
2019-01-03T21:15:10.409Z,97188.65
2019-01-03T21:18:00.143Z,97188.86
2019-01-03T21:20:49.861Z,97190.38
2019-01-03T21:23:40.051Z,97193.58
2019-01-03T21:26:30.083Z,97188.93
2019-01-03T21:29:19.978Z,97189.69
2019-01-03T21:32:09.709Z,97185.70
2019-01-03T21:34:59.206Z,97185.70
2019-01-03T21:40:31.974Z,97184.88
2019-01-03T21:43:21.763Z,97184.06
2019-01-03T21:46:12.076Z,97184.66
2019-01-03T21:49:21.213Z,97189.08
2019-01-03T21:52:28.380Z,97189.08
2019-01-03T21:55:05.275Z,97185.10
2019-01-03T21:57:55.236Z,97172.64
2019-01-03T22:04:54.247Z,97171.14
2019-01-03T22:08:07.066Z,97176.28
2019-01-03T22:10:56.789Z,97173.77
2019-01-03T22:13:47.585Z,97181.49
2019-01-03T22:16:37.457Z,97174.21
2019-01-03T22:19:26.883Z,97173.91
2019-01-03T22:22:16.827Z,97164.16
2019-01-03T22:25:06.831Z,97164.16
2019-01-03T22:27:56.563Z,97169.84
2019-01-03T22:30:47.147Z,97176.84
2019-01-03T22:33:36.876Z,97176.84
2019-01-03T22:36:26.819Z,97183.68
2019-01-03T22:39:18.171Z,97189.52
2019-01-03T22:42:07.801Z,97196.35
2019-01-03T22:44:57.833Z,97202.52
2019-01-03T22:47:47.921Z,97192.12
2019-01-03T22:50:37.537Z,97194.08
2019-01-03T22:53:27.289Z,97205.56
2019-01-03T22:56:17.321Z,97205.56
2019-01-03T22:59:07.004Z,97197.27
2019-01-03T23:01:57.859Z,97205.66
2019-01-03T23:04:49.354Z,97195.00
2019-01-03T23:07:39.939Z,97191.45
2019-01-03T23:10:29.908Z,97211.30
2019-01-03T23:13:19.644Z,97207.69
2019-01-03T23:16:09.783Z,97200.20
2019-01-03T23:18:59.508Z,97196.59
2019-01-03T23:21:49.254Z,97200.13
2019-01-03T23:24:38.784Z,97212.78
2019-01-03T23:27:28.529Z,97203.70
2019-01-03T23:30:18.149Z,97200.51
2019-01-03T23:33:07.955Z,97205.30
2019-01-03T23:35:57.809Z,97203.33
2019-01-03T23:38:47.526Z,97202.36
2019-01-03T23:41:37.465Z,97207.55
2019-01-03T23:44:26.955Z,97206.09
2019-01-03T23:47:16.913Z,97202.11
2019-01-03T23:50:08.722Z,97197.69
2019-01-03T23:53:01.383Z,97214.13
2019-01-03T23:56:33.104Z,97215.20
2019-01-03T23:59:42.114Z,97224.96
